sensor_id;sensor_type;location;lat;lon;timestamp;temperature;humidity
83500;DHT22;73433;50.908;13.746;2023-12-22T00:00:01;4.20;81.80
83500;DHT22;73433;50.908;13.746;2023-12-22T00:02:28;4.20;81.50
83500;DHT22;73433;50.908;13.746;2023-12-22T00:04:55;4.20;81.50
83500;DHT22;73433;50.908;13.746;2023-12-22T00:07:23;4.20;81.60
83500;DHT22;73433;50.908;13.746;2023-12-22T00:09:50;4.20;81.70
83500;DHT22;73433;50.908;13.746;2023-12-22T00:12:17;4.20;81.50
83500;DHT22;73433;50.908;13.746;2023-12-22T00:14:44;4.20;81.50
83500;DHT22;73433;50.908;13.746;2023-12-22T00:17:12;4.20;81.50
83500;DHT22;73433;50.908;13.746;2023-12-22T00:19:39;4.20;81.50
83500;DHT22;73433;50.908;13.746;2023-12-22T00:22:07;4.20;81.00
83500;DHT22;73433;50.908;13.746;2023-12-22T00:24:34;4.20;80.90
83500;DHT22;73433;50.908;13.746;2023-12-22T00:27:02;4.10;80.60
83500;DHT22;73433;50.908;13.746;2023-12-22T00:29:30;4.10;80.40
83500;DHT22;73433;50.908;13.746;2023-12-22T00:31:57;4.10;80.40
83500;DHT22;73433;50.908;13.746;2023-12-22T00:34:25;4.10;80.30
83500;DHT22;73433;50.908;13.746;2023-12-22T00:36:52;4.10;80.30
83500;DHT22;73433;50.908;13.746;2023-12-22T00:39:19;4.10;80.90
83500;DHT22;73433;50.908;13.746;2023-12-22T00:41:47;4.00;79.80
83500;DHT22;73433;50.908;13.746;2023-12-22T00:44:14;4.00;80.20
83500;DHT22;73433;50.908;13.746;2023-12-22T00:46:41;4.00;80.40
83500;DHT22;73433;50.908;13.746;2023-12-22T00:49:08;4.00;80.60
83500;DHT22;73433;50.908;13.746;2023-12-22T00:51:36;4.00;80.70
83500;DHT22;73433;50.908;13.746;2023-12-22T00:54:03;4.00;80.30
83500;DHT22;73433;50.908;13.746;2023-12-22T00:56:30;4.00;80.20
83500;DHT22;73433;50.908;13.746;2023-12-22T00:58:57;4.00;80.00
83500;DHT22;73433;50.908;13.746;2023-12-22T01:01:37;4.00;79.70
83500;DHT22;73433;50.908;13.746;2023-12-22T01:04:05;4.00;79.60
83500;DHT22;73433;50.908;13.746;2023-12-22T01:06:34;4.10;78.80
83500;DHT22;73433;50.908;13.746;2023-12-22T01:09:03;4.10;78.50
83500;DHT22;73433;50.908;13.746;2023-12-22T01:11:31;4.10;78.10
83500;DHT22;73433;50.908;13.746;2023-12-22T01:13:58;4.10;77.80
83500;DHT22;73433;50.908;13.746;2023-12-22T01:16:25;4.10;77.70
83500;DHT22;73433;50.908;13.746;2023-12-22T01:18:53;4.10;77.60
83500;DHT22;73433;50.908;13.746;2023-12-22T01:21:20;4.10;77.60
83500;DHT22;73433;50.908;13.746;2023-12-22T01:23:48;4.10;77.50
83500;DHT22;73433;50.908;13.746;2023-12-22T01:26:15;4.10;77.50
83500;DHT22;73433;50.908;13.746;2023-12-22T01:28:42;4.10;77.40
83500;DHT22;73433;50.908;13.746;2023-12-22T01:31:09;4.10;77.20
83500;DHT22;73433;50.908;13.746;2023-12-22T01:33:37;4.10;77.10
83500;DHT22;73433;50.908;13.746;2023-12-22T01:36:04;4.10;77.60
83500;DHT22;73433;50.908;13.746;2023-12-22T01:38:32;4.10;77.40
83500;DHT22;73433;50.908;13.746;2023-12-22T01:40:59;4.10;77.20
83500;DHT22;73433;50.908;13.746;2023-12-22T01:43:26;4.10;77.30
83500;DHT22;73433;50.908;13.746;2023-12-22T01:45:57;4.00;77.10
83500;DHT22;73433;50.908;13.746;2023-12-22T01:48:26;4.00;77.50
83500;DHT22;73433;50.908;13.746;2023-12-22T01:50:55;4.00;77.80
83500;DHT22;73433;50.908;13.746;2023-12-22T01:53:24;4.00;77.90
83500;DHT22;73433;50.908;13.746;2023-12-22T01:55:53;4.00;77.90
83500;DHT22;73433;50.908;13.746;2023-12-22T01:58:24;4.00;77.70
83500;DHT22;73433;50.908;13.746;2023-12-22T02:00:53;4.00;77.60
83500;DHT22;73433;50.908;13.746;2023-12-22T02:03:21;4.00;77.60
83500;DHT22;73433;50.908;13.746;2023-12-22T02:05:49;4.00;77.00
83500;DHT22;73433;50.908;13.746;2023-12-22T02:08:18;4.00;76.90
83500;DHT22;73433;50.908;13.746;2023-12-22T02:10:45;4.00;76.80
83500;DHT22;73433;50.908;13.746;2023-12-22T02:13:13;4.00;77.10
83500;DHT22;73433;50.908;13.746;2023-12-22T02:15:40;4.00;77.10
83500;DHT22;73433;50.908;13.746;2023-12-22T02:18:20;4.00;77.20
83500;DHT22;73433;50.908;13.746;2023-12-22T02:20:48;3.90;77.70
83500;DHT22;73433;50.908;13.746;2023-12-22T02:23:16;3.90;78.60
83500;DHT22;73433;50.908;13.746;2023-12-22T02:25:43;3.80;79.20
83500;DHT22;73433;50.908;13.746;2023-12-22T02:28:15;3.70;80.10
83500;DHT22;73433;50.908;13.746;2023-12-22T02:33:42;3.60;81.00
83500;DHT22;73433;50.908;13.746;2023-12-22T02:36:10;3.50;81.50
83500;DHT22;73433;50.908;13.746;2023-12-22T02:38:39;3.50;82.10
83500;DHT22;73433;50.908;13.746;2023-12-22T02:41:08;3.40;82.60
83500;DHT22;73433;50.908;13.746;2023-12-22T02:43:35;3.30;83.10
83500;DHT22;73433;50.908;13.746;2023-12-22T02:46:02;3.20;83.70
83500;DHT22;73433;50.908;13.746;2023-12-22T02:48:30;3.10;84.20
83500;DHT22;73433;50.908;13.746;2023-12-22T02:50:57;3.00;84.50
83500;DHT22;73433;50.908;13.746;2023-12-22T02:53:24;3.00;84.80
83500;DHT22;73433;50.908;13.746;2023-12-22T02:55:52;3.00;85.40
83500;DHT22;73433;50.908;13.746;2023-12-22T02:58:19;2.90;85.40
83500;DHT22;73433;50.908;13.746;2023-12-22T03:00:47;2.90;85.20
83500;DHT22;73433;50.908;13.746;2023-12-22T03:03:15;3.00;85.10
83500;DHT22;73433;50.908;13.746;2023-12-22T03:05:42;3.00;84.70
83500;DHT22;73433;50.908;13.746;2023-12-22T03:08:09;3.00;84.50
83500;DHT22;73433;50.908;13.746;2023-12-22T03:10:36;3.00;84.20
83500;DHT22;73433;50.908;13.746;2023-12-22T03:13:04;3.10;84.20
83500;DHT22;73433;50.908;13.746;2023-12-22T03:15:31;3.10;83.70
83500;DHT22;73433;50.908;13.746;2023-12-22T03:17:58;3.10;83.50
83500;DHT22;73433;50.908;13.746;2023-12-22T03:20:25;3.10;83.10
83500;DHT22;73433;50.908;13.746;2023-12-22T03:22:53;3.20;82.80
83500;DHT22;73433;50.908;13.746;2023-12-22T03:25:20;3.20;82.60
83500;DHT22;73433;50.908;13.746;2023-12-22T03:27:47;3.30;82.20
83500;DHT22;73433;50.908;13.746;2023-12-22T03:30:15;3.30;82.00
83500;DHT22;73433;50.908;13.746;2023-12-22T03:32:42;3.30;81.30
83500;DHT22;73433;50.908;13.746;2023-12-22T03:35:09;3.30;81.00
83500;DHT22;73433;50.908;13.746;2023-12-22T03:37:36;3.30;81.00
83500;DHT22;73433;50.908;13.746;2023-12-22T03:40:04;3.30;80.70
83500;DHT22;73433;50.908;13.746;2023-12-22T03:42:31;3.40;80.50
83500;DHT22;73433;50.908;13.746;2023-12-22T03:44:59;3.40;80.20
83500;DHT22;73433;50.908;13.746;2023-12-22T03:47:26;3.50;80.10
83500;DHT22;73433;50.908;13.746;2023-12-22T03:49:53;3.50;79.80
83500;DHT22;73433;50.908;13.746;2023-12-22T03:52:20;3.50;79.80
83500;DHT22;73433;50.908;13.746;2023-12-22T03:54:48;3.50;79.30
83500;DHT22;73433;50.908;13.746;2023-12-22T03:57:15;3.50;79.20
83500;DHT22;73433;50.908;13.746;2023-12-22T03:59:42;3.60;78.80
83500;DHT22;73433;50.908;13.746;2023-12-22T04:02:10;3.60;77.90
83500;DHT22;73433;50.908;13.746;2023-12-22T04:04:38;3.70;77.70
83500;DHT22;73433;50.908;13.746;2023-12-22T04:07:06;3.70;77.50
83500;DHT22;73433;50.908;13.746;2023-12-22T04:09:33;3.70;77.10
83500;DHT22;73433;50.908;13.746;2023-12-22T04:12:00;3.70;76.80
83500;DHT22;73433;50.908;13.746;2023-12-22T04:14:27;3.80;76.50
83500;DHT22;73433;50.908;13.746;2023-12-22T04:16:55;3.80;76.30
83500;DHT22;73433;50.908;13.746;2023-12-22T04:19:23;3.70;76.60
83500;DHT22;73433;50.908;13.746;2023-12-22T04:21:50;3.70;76.70
83500;DHT22;73433;50.908;13.746;2023-12-22T04:24:18;3.70;76.70
83500;DHT22;73433;50.908;13.746;2023-12-22T04:26:45;3.70;76.80
83500;DHT22;73433;50.908;13.746;2023-12-22T04:29:12;3.70;77.00
83500;DHT22;73433;50.908;13.746;2023-12-22T04:31:39;3.70;77.20
83500;DHT22;73433;50.908;13.746;2023-12-22T04:34:06;3.70;77.30
83500;DHT22;73433;50.908;13.746;2023-12-22T04:36:35;3.60;77.60
83500;DHT22;73433;50.908;13.746;2023-12-22T04:39:02;3.60;78.00
83500;DHT22;73433;50.908;13.746;2023-12-22T04:41:30;3.60;78.00
83500;DHT22;73433;50.908;13.746;2023-12-22T04:43:57;3.60;78.00
83500;DHT22;73433;50.908;13.746;2023-12-22T04:46:24;3.60;77.70
83500;DHT22;73433;50.908;13.746;2023-12-22T04:48:51;3.60;78.00
83500;DHT22;73433;50.908;13.746;2023-12-22T04:51:19;3.60;77.60
83500;DHT22;73433;50.908;13.746;2023-12-22T04:53:46;3.60;77.50
83500;DHT22;73433;50.908;13.746;2023-12-22T04:56:13;3.60;77.80
83500;DHT22;73433;50.908;13.746;2023-12-22T04:58:40;3.60;77.60
83500;DHT22;73433;50.908;13.746;2023-12-22T05:01:08;3.60;77.70
83500;DHT22;73433;50.908;13.746;2023-12-22T05:03:35;3.60;78.00
83500;DHT22;73433;50.908;13.746;2023-12-22T05:06:02;3.60;78.00
83500;DHT22;73433;50.908;13.746;2023-12-22T05:08:30;3.60;78.40
83500;DHT22;73433;50.908;13.746;2023-12-22T05:10:57;3.50;79.60
83500;DHT22;73433;50.908;13.746;2023-12-22T05:13:24;3.50;79.50
83500;DHT22;73433;50.908;13.746;2023-12-22T05:15:51;3.50;80.10
83500;DHT22;73433;50.908;13.746;2023-12-22T05:18:19;3.40;80.40
83500;DHT22;73433;50.908;13.746;2023-12-22T05:20:46;3.40;81.00
83500;DHT22;73433;50.908;13.746;2023-12-22T05:23:13;3.30;81.70
83500;DHT22;73433;50.908;13.746;2023-12-22T05:25:40;3.30;82.10
83500;DHT22;73433;50.908;13.746;2023-12-22T05:28:08;3.30;82.30
83500;DHT22;73433;50.908;13.746;2023-12-22T05:30:35;3.20;82.50
83500;DHT22;73433;50.908;13.746;2023-12-22T05:33:02;3.20;82.80
83500;DHT22;73433;50.908;13.746;2023-12-22T05:35:29;3.10;83.10
83500;DHT22;73433;50.908;13.746;2023-12-22T05:37:57;3.10;83.20
83500;DHT22;73433;50.908;13.746;2023-12-22T05:40:24;3.10;83.20
83500;DHT22;73433;50.908;13.746;2023-12-22T05:42:52;3.10;83.30
83500;DHT22;73433;50.908;13.746;2023-12-22T05:45:19;3.00;83.40
83500;DHT22;73433;50.908;13.746;2023-12-22T05:47:46;3.00;83.30
83500;DHT22;73433;50.908;13.746;2023-12-22T05:50:14;3.00;83.30
83500;DHT22;73433;50.908;13.746;2023-12-22T05:52:42;3.00;83.30
83500;DHT22;73433;50.908;13.746;2023-12-22T05:55:12;3.00;83.10
83500;DHT22;73433;50.908;13.746;2023-12-22T05:57:39;3.00;82.80
83500;DHT22;73433;50.908;13.746;2023-12-22T06:00:06;3.00;82.90
83500;DHT22;73433;50.908;13.746;2023-12-22T06:02:37;3.00;82.90
83500;DHT22;73433;50.908;13.746;2023-12-22T06:05:05;3.00;82.80
83500;DHT22;73433;50.908;13.746;2023-12-22T06:07:33;3.00;82.70
83500;DHT22;73433;50.908;13.746;2023-12-22T06:10:00;3.10;82.80
83500;DHT22;73433;50.908;13.746;2023-12-22T06:12:27;3.10;82.60
83500;DHT22;73433;50.908;13.746;2023-12-22T06:14:54;3.10;82.30
83500;DHT22;73433;50.908;13.746;2023-12-22T06:17:21;3.10;82.20
83500;DHT22;73433;50.908;13.746;2023-12-22T06:19:49;3.10;82.10
83500;DHT22;73433;50.908;13.746;2023-12-22T06:22:16;3.10;81.80
83500;DHT22;73433;50.908;13.746;2023-12-22T06:24:43;3.10;81.50
83500;DHT22;73433;50.908;13.746;2023-12-22T06:27:11;3.10;81.40
83500;DHT22;73433;50.908;13.746;2023-12-22T06:29:39;3.10;81.30
83500;DHT22;73433;50.908;13.746;2023-12-22T06:32:06;3.10;81.20
83500;DHT22;73433;50.908;13.746;2023-12-22T06:34:34;3.10;80.90
83500;DHT22;73433;50.908;13.746;2023-12-22T06:37:01;3.10;80.80
83500;DHT22;73433;50.908;13.746;2023-12-22T06:39:29;3.10;80.50
83500;DHT22;73433;50.908;13.746;2023-12-22T06:41:56;3.00;80.30
83500;DHT22;73433;50.908;13.746;2023-12-22T06:44:23;3.10;80.30
83500;DHT22;73433;50.908;13.746;2023-12-22T06:46:52;3.00;80.10
83500;DHT22;73433;50.908;13.746;2023-12-22T06:49:19;3.00;79.90
83500;DHT22;73433;50.908;13.746;2023-12-22T06:51:47;3.00;79.80
83500;DHT22;73433;50.908;13.746;2023-12-22T06:54:14;3.00;80.00
83500;DHT22;73433;50.908;13.746;2023-12-22T06:56:44;2.90;79.90
83500;DHT22;73433;50.908;13.746;2023-12-22T06:59:11;2.90;80.10
83500;DHT22;73433;50.908;13.746;2023-12-22T07:01:42;2.90;80.30
83500;DHT22;73433;50.908;13.746;2023-12-22T07:05:02;2.90;80.50
83500;DHT22;73433;50.908;13.746;2023-12-22T07:07:32;2.90;81.10
83500;DHT22;73433;50.908;13.746;2023-12-22T07:10:02;2.80;81.20
83500;DHT22;73433;50.908;13.746;2023-12-22T07:12:29;2.80;81.50
83500;DHT22;73433;50.908;13.746;2023-12-22T07:14:58;2.80;81.50
83500;DHT22;73433;50.908;13.746;2023-12-22T07:17:26;2.80;81.40
83500;DHT22;73433;50.908;13.746;2023-12-22T07:19:53;2.80;81.30
83500;DHT22;73433;50.908;13.746;2023-12-22T07:22:25;2.80;81.30
83500;DHT22;73433;50.908;13.746;2023-12-22T07:24:52;2.80;81.40
83500;DHT22;73433;50.908;13.746;2023-12-22T07:27:20;2.80;81.40
83500;DHT22;73433;50.908;13.746;2023-12-22T07:29:47;2.90;81.40
83500;DHT22;73433;50.908;13.746;2023-12-22T07:32:16;2.90;81.60
83500;DHT22;73433;50.908;13.746;2023-12-22T07:34:43;2.90;81.50
83500;DHT22;73433;50.908;13.746;2023-12-22T07:37:11;2.90;81.40
83500;DHT22;73433;50.908;13.746;2023-12-22T07:39:38;3.00;81.50
83500;DHT22;73433;50.908;13.746;2023-12-22T07:42:06;3.00;81.70
83500;DHT22;73433;50.908;13.746;2023-12-22T07:44:33;3.00;82.10
83500;DHT22;73433;50.908;13.746;2023-12-22T07:47:01;3.00;82.30
83500;DHT22;73433;50.908;13.746;2023-12-22T07:49:30;2.90;82.60
83500;DHT22;73433;50.908;13.746;2023-12-22T07:51:59;2.90;83.10
83500;DHT22;73433;50.908;13.746;2023-12-22T07:54:29;2.90;83.70
83500;DHT22;73433;50.908;13.746;2023-12-22T07:56:56;2.80;84.10
83500;DHT22;73433;50.908;13.746;2023-12-22T07:59:23;2.80;84.50
83500;DHT22;73433;50.908;13.746;2023-12-22T08:01:58;2.70;85.10
83500;DHT22;73433;50.908;13.746;2023-12-22T08:04:26;2.70;85.60
83500;DHT22;73433;50.908;13.746;2023-12-22T08:06:54;2.60;86.00
83500;DHT22;73433;50.908;13.746;2023-12-22T08:09:21;2.50;86.70
83500;DHT22;73433;50.908;13.746;2023-12-22T08:11:49;2.50;88.10
83500;DHT22;73433;50.908;13.746;2023-12-22T08:14:20;2.50;87.60
83500;DHT22;73433;50.908;13.746;2023-12-22T08:16:47;2.40;87.80
83500;DHT22;73433;50.908;13.746;2023-12-22T08:19:14;2.40;88.20
83500;DHT22;73433;50.908;13.746;2023-12-22T08:21:45;2.40;88.80
83500;DHT22;73433;50.908;13.746;2023-12-22T08:24:15;2.40;89.00
83500;DHT22;73433;50.908;13.746;2023-12-22T08:26:49;2.40;89.20
83500;DHT22;73433;50.908;13.746;2023-12-22T08:29:17;2.40;89.30
83500;DHT22;73433;50.908;13.746;2023-12-22T08:31:46;2.40;89.50
83500;DHT22;73433;50.908;13.746;2023-12-22T08:34:13;2.40;89.80
83500;DHT22;73433;50.908;13.746;2023-12-22T08:36:40;2.40;90.10
83500;DHT22;73433;50.908;13.746;2023-12-22T08:39:08;2.40;90.10
83500;DHT22;73433;50.908;13.746;2023-12-22T08:41:35;2.40;90.30
83500;DHT22;73433;50.908;13.746;2023-12-22T08:44:06;2.40;90.30
83500;DHT22;73433;50.908;13.746;2023-12-22T08:46:34;2.50;90.20
83500;DHT22;73433;50.908;13.746;2023-12-22T08:49:01;2.50;90.20
83500;DHT22;73433;50.908;13.746;2023-12-22T08:51:30;2.50;89.90
83500;DHT22;73433;50.908;13.746;2023-12-22T08:53:58;2.50;89.60
83500;DHT22;73433;50.908;13.746;2023-12-22T08:56:26;2.50;89.60
83500;DHT22;73433;50.908;13.746;2023-12-22T08:58:54;2.50;89.70
83500;DHT22;73433;50.908;13.746;2023-12-22T09:01:22;2.40;89.70
83500;DHT22;73433;50.908;13.746;2023-12-22T09:03:50;2.40;89.70
83500;DHT22;73433;50.908;13.746;2023-12-22T09:06:18;2.40;89.60
83500;DHT22;73433;50.908;13.746;2023-12-22T09:08:46;2.40;89.50
83500;DHT22;73433;50.908;13.746;2023-12-22T09:11:16;2.40;89.30
83500;DHT22;73433;50.908;13.746;2023-12-22T09:13:44;2.40;89.10
83500;DHT22;73433;50.908;13.746;2023-12-22T09:16:11;2.50;89.20
83500;DHT22;73433;50.908;13.746;2023-12-22T09:18:42;2.40;89.10
83500;DHT22;73433;50.908;13.746;2023-12-22T09:21:12;2.50;89.30
83500;DHT22;73433;50.908;13.746;2023-12-22T09:23:39;2.50;89.20
83500;DHT22;73433;50.908;13.746;2023-12-22T09:26:06;2.70;89.50
83500;DHT22;73433;50.908;13.746;2023-12-22T09:28:33;3.00;89.00
83500;DHT22;73433;50.908;13.746;2023-12-22T09:31:02;3.10;87.60
83500;DHT22;73433;50.908;13.746;2023-12-22T09:33:32;3.20;86.80
83500;DHT22;73433;50.908;13.746;2023-12-22T09:36:00;3.10;86.00
83500;DHT22;73433;50.908;13.746;2023-12-22T09:38:27;3.00;86.00
83500;DHT22;73433;50.908;13.746;2023-12-22T09:40:55;3.00;86.20
83500;DHT22;73433;50.908;13.746;2023-12-22T09:43:23;3.00;86.40
83500;DHT22;73433;50.908;13.746;2023-12-22T09:45:51;3.10;87.10
83500;DHT22;73433;50.908;13.746;2023-12-22T09:48:21;3.20;86.50
83500;DHT22;73433;50.908;13.746;2023-12-22T09:50:55;3.30;86.60
83500;DHT22;73433;50.908;13.746;2023-12-22T09:53:23;3.50;86.30
83500;DHT22;73433;50.908;13.746;2023-12-22T09:55:51;3.60;85.50
83500;DHT22;73433;50.908;13.746;2023-12-22T09:58:19;3.60;84.30
83500;DHT22;73433;50.908;13.746;2023-12-22T10:00:47;3.60;83.50
83500;DHT22;73433;50.908;13.746;2023-12-22T10:03:16;3.50;83.40
83500;DHT22;73433;50.908;13.746;2023-12-22T10:05:44;3.40;83.20
83500;DHT22;73433;50.908;13.746;2023-12-22T10:08:13;3.40;83.40
83500;DHT22;73433;50.908;13.746;2023-12-22T10:10:42;3.30;84.30
83500;DHT22;73433;50.908;13.746;2023-12-22T10:13:13;3.30;83.40
83500;DHT22;73433;50.908;13.746;2023-12-22T10:15:41;3.20;83.30
83500;DHT22;73433;50.908;13.746;2023-12-22T10:18:10;3.30;82.90
83500;DHT22;73433;50.908;13.746;2023-12-22T10:20:38;3.30;82.80
83500;DHT22;73433;50.908;13.746;2023-12-22T10:23:05;3.30;82.30
83500;DHT22;73433;50.908;13.746;2023-12-22T10:25:33;3.30;82.50
83500;DHT22;73433;50.908;13.746;2023-12-22T10:28:01;3.30;82.00
83500;DHT22;73433;50.908;13.746;2023-12-22T10:30:28;3.30;81.90
83500;DHT22;73433;50.908;13.746;2023-12-22T10:32:56;3.30;81.50
83500;DHT22;73433;50.908;13.746;2023-12-22T10:35:23;3.30;81.40
83500;DHT22;73433;50.908;13.746;2023-12-22T10:37:51;3.30;81.10
83500;DHT22;73433;50.908;13.746;2023-12-22T10:40:21;3.20;81.00
83500;DHT22;73433;50.908;13.746;2023-12-22T10:42:51;3.20;81.60
83500;DHT22;73433;50.908;13.746;2023-12-22T10:45:18;3.10;82.20
83500;DHT22;73433;50.908;13.746;2023-12-22T10:47:47;3.00;83.00
83500;DHT22;73433;50.908;13.746;2023-12-22T10:50:22;3.00;83.70
83500;DHT22;73433;50.908;13.746;2023-12-22T10:52:51;3.00;83.80
83500;DHT22;73433;50.908;13.746;2023-12-22T10:55:19;2.90;83.90
83500;DHT22;73433;50.908;13.746;2023-12-22T10:57:47;2.90;84.20
83500;DHT22;73433;50.908;13.746;2023-12-22T11:00:15;2.90;84.30
83500;DHT22;73433;50.908;13.746;2023-12-22T11:02:49;2.90;84.50
83500;DHT22;73433;50.908;13.746;2023-12-22T11:05:21;2.80;84.80
83500;DHT22;73433;50.908;13.746;2023-12-22T11:07:54;2.80;84.90
83500;DHT22;73433;50.908;13.746;2023-12-22T11:10:22;2.70;85.60
83500;DHT22;73433;50.908;13.746;2023-12-22T11:12:50;2.60;86.20
83500;DHT22;73433;50.908;13.746;2023-12-22T11:15:19;2.60;87.00
83500;DHT22;73433;50.908;13.746;2023-12-22T11:17:49;2.70;87.80
83500;DHT22;73433;50.908;13.746;2023-12-22T11:20:19;2.80;87.80
83500;DHT22;73433;50.908;13.746;2023-12-22T11:22:48;2.80;87.40
83500;DHT22;73433;50.908;13.746;2023-12-22T11:25:18;2.80;87.10
83500;DHT22;73433;50.908;13.746;2023-12-22T11:27:47;2.90;87.10
83500;DHT22;73433;50.908;13.746;2023-12-22T11:30:16;3.20;87.40
83500;DHT22;73433;50.908;13.746;2023-12-22T11:32:45;3.60;86.60
83500;DHT22;73433;50.908;13.746;2023-12-22T11:35:14;3.80;85.00
83500;DHT22;73433;50.908;13.746;2023-12-22T11:37:42;4.20;84.10
83500;DHT22;73433;50.908;13.746;2023-12-22T11:40:10;4.40;82.60
83500;DHT22;73433;50.908;13.746;2023-12-22T11:42:42;4.70;81.50
83500;DHT22;73433;50.908;13.746;2023-12-22T11:45:13;4.80;79.30
83500;DHT22;73433;50.908;13.746;2023-12-22T11:47:43;4.70;78.40
83500;DHT22;73433;50.908;13.746;2023-12-22T11:50:11;4.50;77.80
83500;DHT22;73433;50.908;13.746;2023-12-22T11:52:39;4.30;78.10
83500;DHT22;73433;50.908;13.746;2023-12-22T11:55:07;4.10;78.60
83500;DHT22;73433;50.908;13.746;2023-12-22T11:57:38;4.00;79.10
83500;DHT22;73433;50.908;13.746;2023-12-22T12:02:58;3.80;80.00
83500;DHT22;73433;50.908;13.746;2023-12-22T12:05:25;3.70;80.40
83500;DHT22;73433;50.908;13.746;2023-12-22T12:07:53;3.60;80.70
83500;DHT22;73433;50.908;13.746;2023-12-22T12:15:33;3.60;81.80
83500;DHT22;73433;50.908;13.746;2023-12-22T12:18:02;3.60;82.00
83500;DHT22;73433;50.908;13.746;2023-12-22T12:20:30;3.60;82.10
83500;DHT22;73433;50.908;13.746;2023-12-22T12:22:57;3.70;82.20
83500;DHT22;73433;50.908;13.746;2023-12-22T12:25:28;3.70;82.10
83500;DHT22;73433;50.908;13.746;2023-12-22T12:28:04;3.80;81.90
83500;DHT22;73433;50.908;13.746;2023-12-22T12:30:33;3.80;81.70
83500;DHT22;73433;50.908;13.746;2023-12-22T12:33:10;3.80;81.60
83500;DHT22;73433;50.908;13.746;2023-12-22T12:35:38;3.80;81.10
83500;DHT22;73433;50.908;13.746;2023-12-22T12:38:12;3.80;81.10
83500;DHT22;73433;50.908;13.746;2023-12-22T12:40:40;3.80;81.20
83500;DHT22;73433;50.908;13.746;2023-12-22T12:43:08;3.80;81.10
83500;DHT22;73433;50.908;13.746;2023-12-22T12:45:36;3.80;80.00
83500;DHT22;73433;50.908;13.746;2023-12-22T12:48:03;3.70;79.90
83500;DHT22;73433;50.908;13.746;2023-12-22T12:50:34;3.70;79.60
83500;DHT22;73433;50.908;13.746;2023-12-22T12:53:02;3.70;79.30
83500;DHT22;73433;50.908;13.746;2023-12-22T12:55:30;3.60;79.20
83500;DHT22;73433;50.908;13.746;2023-12-22T12:57:57;3.50;80.30
83500;DHT22;73433;50.908;13.746;2023-12-22T13:00:29;3.30;81.20
83500;DHT22;73433;50.908;13.746;2023-12-22T13:03:00;3.10;82.50
83500;DHT22;73433;50.908;13.746;2023-12-22T13:05:31;2.90;83.70
83500;DHT22;73433;50.908;13.746;2023-12-22T13:08:11;2.80;84.60
83500;DHT22;73433;50.908;13.746;2023-12-22T13:10:40;2.60;85.40
83500;DHT22;73433;50.908;13.746;2023-12-22T13:13:08;2.60;86.20
83500;DHT22;73433;50.908;13.746;2023-12-22T13:15:40;2.50;86.80
83500;DHT22;73433;50.908;13.746;2023-12-22T13:18:09;2.40;87.30
83500;DHT22;73433;50.908;13.746;2023-12-22T13:20:36;2.40;87.80
83500;DHT22;73433;50.908;13.746;2023-12-22T13:23:04;2.30;88.10
83500;DHT22;73433;50.908;13.746;2023-12-22T13:25:40;2.20;88.50
83500;DHT22;73433;50.908;13.746;2023-12-22T13:28:08;2.10;88.90
83500;DHT22;73433;50.908;13.746;2023-12-22T13:30:35;2.10;89.30
83500;DHT22;73433;50.908;13.746;2023-12-22T13:33:04;2.10;89.60
83500;DHT22;73433;50.908;13.746;2023-12-22T13:35:36;2.00;89.70
83500;DHT22;73433;50.908;13.746;2023-12-22T13:38:09;1.90;90.10
83500;DHT22;73433;50.908;13.746;2023-12-22T13:40:39;1.90;90.30
83500;DHT22;73433;50.908;13.746;2023-12-22T13:43:06;1.80;90.50
83500;DHT22;73433;50.908;13.746;2023-12-22T13:45:35;1.70;90.80
83500;DHT22;73433;50.908;13.746;2023-12-22T13:48:03;1.70;91.30
83500;DHT22;73433;50.908;13.746;2023-12-22T13:50:30;1.60;91.50
83500;DHT22;73433;50.908;13.746;2023-12-22T13:53:10;1.60;91.90
83500;DHT22;73433;50.908;13.746;2023-12-22T13:55:38;1.60;92.20
83500;DHT22;73433;50.908;13.746;2023-12-22T13:58:06;1.60;92.30
83500;DHT22;73433;50.908;13.746;2023-12-22T14:00:34;1.60;92.90
83500;DHT22;73433;50.908;13.746;2023-12-22T14:03:02;1.50;92.60
83500;DHT22;73433;50.908;13.746;2023-12-22T14:05:30;1.50;92.70
83500;DHT22;73433;50.908;13.746;2023-12-22T14:08:04;1.50;92.90
83500;DHT22;73433;50.908;13.746;2023-12-22T14:10:31;1.40;93.10
83500;DHT22;73433;50.908;13.746;2023-12-22T14:12:58;1.50;93.50
83500;DHT22;73433;50.908;13.746;2023-12-22T14:15:26;1.40;93.40
83500;DHT22;73433;50.908;13.746;2023-12-22T14:18:11;1.50;93.70
83500;DHT22;73433;50.908;13.746;2023-12-22T14:20:38;1.50;93.90
83500;DHT22;73433;50.908;13.746;2023-12-22T14:23:06;1.50;94.00
83500;DHT22;73433;50.908;13.746;2023-12-22T14:25:37;1.50;94.00
83500;DHT22;73433;50.908;13.746;2023-12-22T14:28:04;1.50;94.20
83500;DHT22;73433;50.908;13.746;2023-12-22T14:30:31;1.60;94.30
83500;DHT22;73433;50.908;13.746;2023-12-22T14:32:59;1.60;94.10
83500;DHT22;73433;50.908;13.746;2023-12-22T14:35:26;1.60;94.00
83500;DHT22;73433;50.908;13.746;2023-12-22T14:37:54;1.60;94.00
83500;DHT22;73433;50.908;13.746;2023-12-22T14:40:21;1.60;93.90
83500;DHT22;73433;50.908;13.746;2023-12-22T14:42:48;1.60;94.10
83500;DHT22;73433;50.908;13.746;2023-12-22T14:45:15;1.70;94.20
83500;DHT22;73433;50.908;13.746;2023-12-22T14:47:42;1.70;94.30
83500;DHT22;73433;50.908;13.746;2023-12-22T14:50:10;1.60;94.10
83500;DHT22;73433;50.908;13.746;2023-12-22T14:52:37;1.60;94.10
83500;DHT22;73433;50.908;13.746;2023-12-22T14:55:05;1.60;94.20
83500;DHT22;73433;50.908;13.746;2023-12-22T14:57:32;1.60;94.20
83500;DHT22;73433;50.908;13.746;2023-12-22T15:00:01;1.60;94.40
83500;DHT22;73433;50.908;13.746;2023-12-22T15:02:28;1.60;94.50
83500;DHT22;73433;50.908;13.746;2023-12-22T15:04:55;1.60;94.50
83500;DHT22;73433;50.908;13.746;2023-12-22T15:07:27;1.70;94.80
83500;DHT22;73433;50.908;13.746;2023-12-22T15:09:54;1.70;94.60
83500;DHT22;73433;50.908;13.746;2023-12-22T15:12:21;1.80;94.60
83500;DHT22;73433;50.908;13.746;2023-12-22T15:14:48;1.80;94.50
83500;DHT22;73433;50.908;13.746;2023-12-22T15:17:16;1.80;94.70
83500;DHT22;73433;50.908;13.746;2023-12-22T15:19:44;1.80;94.70
83500;DHT22;73433;50.908;13.746;2023-12-22T15:22:12;1.90;94.70
83500;DHT22;73433;50.908;13.746;2023-12-22T15:24:42;1.90;95.00
83500;DHT22;73433;50.908;13.746;2023-12-22T15:27:13;1.90;95.00
83500;DHT22;73433;50.908;13.746;2023-12-22T15:29:41;1.90;95.20
83500;DHT22;73433;50.908;13.746;2023-12-22T15:32:08;1.90;95.10
83500;DHT22;73433;50.908;13.746;2023-12-22T15:34:35;1.90;95.00
83500;DHT22;73433;50.908;13.746;2023-12-22T15:37:03;1.90;95.10
83500;DHT22;73433;50.908;13.746;2023-12-22T15:39:30;1.80;95.10
83500;DHT22;73433;50.908;13.746;2023-12-22T15:41:58;1.80;95.20
83500;DHT22;73433;50.908;13.746;2023-12-22T15:44:25;1.80;95.40
83500;DHT22;73433;50.908;13.746;2023-12-22T15:46:52;1.80;95.50